Time;durP1;ratioP1;P1;durP2;ratioP2;P2;SDS_P1;SDS_P2;PMS_P1;PMS_P2;Temp;Humidity;BMP_temperature;BMP_pressure;BME280_temperature;BME280_humidity;BME280_pressure;Samples;Min_cycle;Max_cycle;Signal;HPM_P1;HPM_P2
2021/12/11 00:02:10;;;;;;;31.38;24.20;;;-1.30;99.90;;;;;;5109427;28;20043;-83
2021/12/11 00:04:37;;;;;;;;;;;-1.30;99.90;;;;;;5095177;28;20055;-83
2021/12/11 00:07:07;;;;;;;34.67;26.42;;;-1.30;99.90;;;;;;5093088;28;19959;-82
2021/12/11 00:10:05;;;;;;;32.83;23.83;;;-1.40;99.90;;;;;;5092800;28;20052;-82
2021/12/11 00:12:35;;;;;;;29.15;22.05;;;-1.40;99.90;;;;;;5092587;28;20429;-82
2021/12/11 00:15:11;;;;;;;29.98;23.60;;;-1.40;99.90;;;;;;5091702;28;20087;-82
2021/12/11 00:17:37;;;;;;;34.97;24.88;;;-1.40;99.90;;;;;;5092949;28;20040;-83
2021/12/11 00:20:08;;;;;;;29.60;22.15;;;-1.40;99.90;;;;;;5092128;28;20108;-83
2021/12/11 00:22:35;;;;;;;29.92;22.85;;;-1.40;99.90;;;;;;5092202;28;20472;-83
2021/12/11 00:25:09;;;;;;;25.10;20.67;;;-1.40;99.90;;;;;;5091415;28;20101;-83
2021/12/11 00:27:38;;;;;;;30.48;23.38;;;-1.50;99.90;;;;;;5091530;28;20104;-83
2021/12/11 00:30:10;;;;;;;30.30;24.15;;;-1.50;99.90;;;;;;5092003;28;20122;-83
2021/12/11 00:32:37;;;;;;;36.42;25.95;;;-1.50;99.90;;;;;;5092944;28;20044;-83
2021/12/11 00:35:14;;;;;;;31.98;23.95;;;-1.50;99.90;;;;;;5092105;28;20044;-83
2021/12/11 00:37:40;;;;;;;39.00;29.92;;;-1.50;99.90;;;;;;5092081;28;20469;-83
2021/12/11 00:40:24;;;;;;;41.58;31.85;;;-1.50;99.90;;;;;;5091939;28;20047;-83
2021/12/11 00:42:57;;;;;;;43.45;30.85;;;-1.40;99.90;;;;;;5098722;28;20396;-81
2021/12/11 00:45:28;;;;;;;38.92;28.90;;;-1.40;99.90;;;;;;5111113;28;20050;-84
2021/12/11 00:47:58;;;;;;;;;;;-1.40;99.90;;;;;;5105115;28;20495;-83
2021/12/11 00:50:30;;;;;;;32.13;24.42;;;-1.50;99.90;;;;;;5115131;28;19919;-83
2021/12/11 00:53:16;;;;;;;36.00;25.83;;;-1.50;99.90;;;;;;5110137;28;20046;-83
2021/12/11 00:55:53;;;;;;;32.50;24.63;;;-1.50;99.90;;;;;;5096168;28;20126;-84
2021/12/11 00:58:24;;;;;;;33.30;24.98;;;-1.40;99.90;;;;;;5096267;28;20481;-83
2021/12/11 01:00:58;;;;;;;44.25;31.48;;;-1.50;99.90;;;;;;5096162;28;20047;-75
2021/12/11 01:03:30;;;;;;;39.40;27.60;;;-1.60;99.90;;;;;;5105493;28;20128;-83
2021/12/11 01:05:59;;;;;;;37.13;27.90;;;-1.60;99.90;;;;;;5115752;28;20047;-82
2021/12/11 01:08:36;;;;;;;34.55;26.67;;;-1.60;99.90;;;;;;5099722;27;20036;-83
2021/12/11 01:11:10;;;;;;;37.20;26.38;;;-1.60;99.90;;;;;;5094872;28;20046;-83
2021/12/11 01:13:45;;;;;;;39.45;29.13;;;-1.60;99.90;;;;;;5096395;28;20044;-83
2021/12/11 01:16:14;;;;;;;41.70;29.55;;;-1.70;99.90;;;;;;5095041;28;20119;-83
2021/12/11 01:18:55;;;;;;;46.88;32.53;;;-1.70;99.90;;;;;;5096307;28;20439;-83
2021/12/11 01:21:43;;;;;;;45.22;32.55;;;-1.70;99.90;;;;;;5095491;28;20115;-83
2021/12/11 01:24:29;;;;;;;39.78;30.02;;;-1.60;99.90;;;;;;5095545;28;20123;-84
2021/12/11 01:26:58;;;;;;;38.67;28.38;;;-1.60;99.90;;;;;;5075106;28;20136;-76
2021/12/11 01:29:24;;;;;;;34.33;26.15;;;-1.70;99.90;;;;;;5109882;28;20055;-83
2021/12/11 01:31:52;;;;;;;35.35;26.95;;;-1.70;99.90;;;;;;5096572;28;20090;-84
2021/12/11 01:34:19;;;;;;;33.97;27.42;;;-1.70;99.90;;;;;;5095833;28;20043;-83
2021/12/11 01:36:45;;;;;;;32.15;25.77;;;-1.80;99.90;;;;;;5116113;28;20074;-83
2021/12/11 01:39:17;;;;;;;33.28;25.63;;;-1.80;99.90;;;;;;5098408;28;20044;-83
2021/12/11 01:41:45;;;;;;;32.75;24.70;;;-1.80;99.90;;;;;;5095687;28;20048;-83
2021/12/11 01:44:15;;;;;;;33.97;27.40;;;-1.80;99.90;;;;;;5109377;28;20051;-84
2021/12/11 01:46:42;;;;;;;33.92;27.48;;;-1.80;99.90;;;;;;5116006;28;20502;-84
2021/12/11 01:49:20;;;;;;;37.03;28.30;;;-1.80;99.90;;;;;;5096367;27;20404;-84
2021/12/11 01:51:52;;;;;;;37.35;28.17;;;-1.80;99.90;;;;;;5095700;28;20063;-84
2021/12/11 01:54:32;;;;;;;33.40;27.80;;;-1.80;99.90;;;;;;5094300;28;20488;-83
2021/12/11 01:57:02;;;;;;;34.28;26.65;;;-1.80;99.90;;;;;;5094868;28;20436;-76
2021/12/11 01:59:35;;;;;;;33.45;25.95;;;-1.70;99.90;;;;;;5115115;28;20035;-84
2021/12/11 02:02:11;;;;;;;32.40;26.08;;;-1.70;99.90;;;;;;5114862;28;20055;-84
2021/12/11 02:04:41;;;;;;;34.92;26.77;;;-1.70;99.90;;;;;;5087685;28;20044;-84
2021/12/11 02:07:18;;;;;;;30.10;24.42;;;-1.80;99.90;;;;;;5097001;28;20098;-84
2021/12/11 02:09:50;;;;;;;27.50;23.45;;;-1.80;99.90;;;;;;5090481;28;20048;-84
2021/12/11 02:12:22;;;;;;;31.92;25.40;;;-1.80;99.90;;;;;;5094243;28;20118;-84
2021/12/11 02:14:53;;;;;;;28.83;24.23;;;-1.90;99.90;;;;;;5101408;28;20502;-84
2021/12/11 02:17:24;;;;;;;25.98;22.83;;;-1.90;99.90;;;;;;5111560;28;20040;-84
2021/12/11 02:19:51;;;;;;;;;;;-2.00;99.90;;;;;;5095314;28;20127;-84
2021/12/11 02:22:24;;;;;;;28.45;23.25;;;-2.00;99.90;;;;;;5094374;28;20335;-84
2021/12/11 02:24:56;;;;;;;26.50;22.65;;;-2.10;99.90;;;;;;5101440;28;20484;-85
2021/12/11 02:27:33;;;;;;;26.98;23.80;;;-2.10;99.90;;;;;;5111586;28;20071;-84
2021/12/11 02:30:31;;;;;;;24.95;22.25;;;-2.10;99.90;;;;;;5094490;28;20109;-76
2021/12/11 02:33:07;;;;;;;33.00;26.30;;;-2.10;99.90;;;;;;5081126;28;20052;-84
2021/12/11 02:35:43;;;;;;;30.00;26.02;;;-2.10;99.90;;;;;;5094885;28;20374;-84
2021/12/11 02:38:30;;;;;;;33.58;27.33;;;-2.00;99.90;;;;;;5099747;28;20383;-84
2021/12/11 02:41:19;;;;;;;29.50;24.23;;;-2.00;99.90;;;;;;5094498;28;20176;-85
2021/12/11 02:44:16;;;;;;;28.67;24.20;;;-2.00;99.90;;;;;;5093901;28;20488;-85
2021/12/11 02:47:13;;;;;;;27.80;24.25;;;-1.90;99.90;;;;;;5093851;28;20493;-85
2021/12/11 02:49:47;;;;;;;30.42;24.88;;;-1.90;99.90;;;;;;5111947;28;20134;-85
2021/12/11 02:52:30;;;;;;;30.65;25.15;;;-1.90;99.90;;;;;;5096237;28;20048;-84
2021/12/11 02:55:01;;;;;;;34.05;26.35;;;-1.90;99.90;;;;;;5098873;28;20040;-85
2021/12/11 02:57:36;;;;;;;34.83;27.65;;;-1.90;99.90;;;;;;5114151;28;20051;-84
2021/12/11 03:00:26;;;;;;;36.90;28.00;;;-1.90;99.90;;;;;;5074081;28;20047;-85
2021/12/11 03:03:02;;;;;;;35.28;27.80;;;-1.90;99.90;;;;;;5077118;28;20044;-78
2021/12/11 03:05:38;;;;;;;32.50;25.83;;;-1.90;99.90;;;;;;5093084;28;20044;-85
2021/12/11 03:08:07;;;;;;;34.63;26.58;;;-1.90;99.90;;;;;;5093778;28;20069;-76
2021/12/11 03:10:34;;;;;;;33.20;26.92;;;-1.80;99.90;;;;;;5093891;28;20473;-85
2021/12/11 03:13:00;;;;;;;32.13;25.15;;;-1.80;99.90;;;;;;5097814;28;20451;-85
2021/12/11 03:15:26;;;;;;;30.52;25.67;;;-1.80;99.90;;;;;;5098928;28;20130;-85
2021/12/11 03:17:53;;;;;;;32.95;27.27;;;-1.90;99.90;;;;;;5113960;28;20130;-85
2021/12/11 03:20:21;;;;;;;34.08;27.05;;;-1.80;99.90;;;;;;5112514;28;20130;-85
2021/12/11 03:22:48;;;;;;;36.42;28.38;;;-1.80;99.90;;;;;;5093684;28;20051;-85
2021/12/11 03:25:22;;;;;;;33.20;26.77;;;-1.80;99.90;;;;;;5092291;28;20059;-85
2021/12/11 03:27:49;;;;;;;33.72;27.30;;;-1.80;99.90;;;;;;5091223;28;20097;-85
2021/12/11 03:30:21;;;;;;;33.53;27.98;;;-1.80;99.90;;;;;;5092961;28;20048;-85
2021/12/11 03:32:53;;;;;;;32.50;26.67;;;-1.80;99.90;;;;;;5113121;28;20078;-85
2021/12/11 03:35:20;;;;;;;28.90;24.75;;;-1.80;99.90;;;;;;5113278;28;20397;-85
2021/12/11 03:37:46;;;;;;;29.25;25.77;;;-1.80;99.90;;;;;;5111768;28;20036;-85
2021/12/11 03:40:12;;;;;;;32.72;25.50;;;-1.80;99.90;;;;;;5092145;27;20126;-85
2021/12/11 03:42:41;;;;;;;31.98;26.60;;;-1.90;99.90;;;;;;5093245;28;20529;-85
2021/12/11 03:45:19;;;;;;;33.47;27.50;;;-1.90;99.90;;;;;;5093408;28;20044;-85
2021/12/11 03:47:51;;;;;;;38.53;28.80;;;-1.90;99.90;;;;;;5093974;28;20080;-85
2021/12/11 03:50:19;;;;;;;36.05;29.13;;;-1.90;99.90;;;;;;5103135;28;20119;-85
2021/12/11 03:52:46;;;;;;;38.92;30.40;;;-1.90;99.90;;;;;;5113736;28;20082;-85
2021/12/11 03:55:17;;;;;;;38.08;30.45;;;-1.90;99.90;;;;;;5102909;28;20040;-81
2021/12/11 03:57:44;;;;;;;38.63;30.67;;;-1.90;99.90;;;;;;5093167;28;20083;-85
2021/12/11 04:00:15;;;;;;;38.72;29.88;;;-1.90;99.90;;;;;;5092754;28;20047;-76
2021/12/11 04:02:44;;;;;;;38.40;29.15;;;-1.90;99.90;;;;;;5093077;28;20048;-85
2021/12/11 04:05:10;;;;;;;36.15;29.70;;;-1.90;99.90;;;;;;5100561;28;20051;-85
2021/12/11 04:07:41;;;;;;;37.70;29.23;;;-1.90;99.90;;;;;;5103746;28;20484;-84
2021/12/11 04:10:07;;;;;;;;;;;-1.90;99.90;;;;;;5093134;28;20043;-85
2021/12/11 04:12:33;;;;;;;39.53;30.10;;;-2.00;99.90;;;;;;5091960;28;19916;-85
2021/12/11 04:14:59;;;;;;;37.83;30.23;;;-2.00;99.90;;;;;;5098295;28;20127;-85
2021/12/11 04:17:28;;;;;;;40.03;31.40;;;-2.00;99.90;;;;;;5092030;28;20048;-85
2021/12/11 04:19:57;;;;;;;42.95;31.42;;;-2.00;99.90;;;;;;5092865;28;20139;-85
2021/12/11 04:22:24;;;;;;;38.97;30.45;;;-2.00;99.90;;;;;;5095269;28;20079;-85
2021/12/11 04:24:51;;;;;;;41.10;30.75;;;-2.00;99.90;;;;;;5112532;28;20126;-85
2021/12/11 04:27:19;;;;;;;38.03;29.85;;;-2.00;99.90;;;;;;5109912;28;20122;-85
2021/12/11 04:29:51;;;;;;;38.50;28.88;;;-2.00;99.90;;;;;;5091529;28;20044;-85
2021/12/11 04:32:18;;;;;;;37.00;29.15;;;-2.00;99.90;;;;;;5092047;28;20461;-80
2021/12/11 04:34:45;;;;;;;38.70;29.85;;;-2.00;99.90;;;;;;5092575;28;20044;-85
2021/12/11 04:37:17;;;;;;;34.80;28.80;;;-2.00;99.90;;;;;;5101212;28;20051;-85
2021/12/11 04:39:47;;;;;;;37.88;30.05;;;-2.00;99.90;;;;;;5093118;28;20097;-85
2021/12/11 04:42:31;;;;;;;36.55;30.15;;;-2.00;99.90;;;;;;5092343;28;20040;-85
2021/12/11 04:44:58;;;;;;;40.70;30.52;;;-2.00;99.90;;;;;;5092714;28;20123;-85
2021/12/11 04:47:34;;;;;;;39.35;30.13;;;-2.00;99.90;;;;;;5091564;28;20082;-85
2021/12/11 04:50:06;;;;;;;42.40;33.17;;;-2.00;99.90;;;;;;5092768;28;20071;-85
2021/12/11 04:52:34;;;;;;;47.00;35.03;;;-2.10;99.90;;;;;;5091197;28;20048;-85
2021/12/11 05:00:12;;;;;;;41.42;32.78;;;-2.00;99.90;;;;;;5109666;28;20055;-85
2021/12/11 05:08:15;;;;;;;44.28;32.60;;;-2.00;99.90;;;;;;5091899;28;20051;-85
2021/12/11 05:10:59;;;;;;;47.78;33.25;;;-2.00;99.90;;;;;;5071568;28;20051;-85
2021/12/11 05:13:27;;;;;;;46.15;33.03;;;-2.00;99.90;;;;;;5086585;28;20047;-85
2021/12/11 05:15:57;;;;;;;42.42;33.15;;;-2.00;99.90;;;;;;5092152;28;20385;-85
2021/12/11 05:18:26;;;;;;;43.35;33.08;;;-2.00;99.90;;;;;;5093790;28;20089;-84
2021/12/11 05:20:57;;;;;;;45.65;33.88;;;-2.00;99.90;;;;;;5092951;28;20079;-86
2021/12/11 05:23:23;;;;;;;48.17;34.50;;;-2.00;99.90;;;;;;5091810;28;20044;-84
2021/12/11 05:25:49;;;;;;;46.60;34.30;;;-2.00;99.90;;;;;;5092043;28;20400;-85
2021/12/11 05:28:16;;;;;;;50.95;35.92;;;-2.00;99.90;;;;;;5091718;28;20071;-85
2021/12/11 05:30:46;;;;;;;53.47;36.72;;;-2.00;99.90;;;;;;5091392;28;20060;-85
2021/12/11 05:33:12;;;;;;;52.88;38.15;;;-1.90;99.90;;;;;;5092244;28;20412;-85
2021/12/11 05:35:39;;;;;;;43.50;33.65;;;-1.90;99.90;;;;;;5092452;28;20401;-84
2021/12/11 05:38:07;;;;;;;42.78;31.80;;;-1.90;99.90;;;;;;5095618;28;20089;-83
2021/12/11 05:40:36;;;;;;;42.38;31.30;;;-1.90;99.90;;;;;;5094611;28;20099;-84
2021/12/11 05:43:02;;;;;;;43.60;31.80;;;-1.90;99.90;;;;;;5094211;28;20059;-85
2021/12/11 05:45:28;;;;;;;45.22;33.50;;;-2.00;99.90;;;;;;5114443;28;20043;-84
2021/12/11 05:47:54;;;;;;;49.60;36.25;;;-2.00;99.90;;;;;;5115854;28;20047;-85
2021/12/11 05:50:31;;;;;;;48.83;35.72;;;-2.00;99.90;;;;;;5097384;28;20048;-85
2021/12/11 05:52:56;;;;;;;54.95;37.60;;;-2.00;99.90;;;;;;5095114;28;20047;-85
2021/12/11 05:55:24;;;;;;;55.97;39.72;;;-2.00;99.90;;;;;;5095566;28;20044;-85
2021/12/11 05:57:55;;;;;;;59.03;41.42;;;-1.90;99.90;;;;;;5094925;28;20079;-85
2021/12/11 06:00:28;;;;;;;57.05;40.90;;;-1.90;99.90;;;;;;5095853;28;20066;-85
2021/12/11 06:02:54;;;;;;;51.22;38.42;;;-1.90;99.90;;;;;;5090823;28;20044;-85
2021/12/11 06:05:21;;;;;;;52.53;39.53;;;-1.90;99.90;;;;;;5095196;28;20047;-85
2021/12/11 06:07:46;;;;;;;51.97;37.03;;;-1.90;99.90;;;;;;5096113;28;20047;-85
2021/12/11 06:10:16;;;;;;;48.78;36.53;;;-1.90;99.90;;;;;;5108990;28;20043;-86
2021/12/11 06:12:44;;;;;;;47.78;36.53;;;-1.90;99.90;;;;;;5099422;28;20123;-80
2021/12/11 06:15:10;;;;;;;50.78;37.40;;;-1.90;99.90;;;;;;5095144;28;20149;-85
2021/12/11 06:17:37;;;;;;;49.88;37.03;;;-1.90;99.90;;;;;;5100981;28;20403;-85
2021/12/11 06:20:06;;;;;;;51.40;37.53;;;-1.90;99.90;;;;;;5114930;28;20054;-87
2021/12/11 06:22:34;;;;;;;43.30;33.47;;;-1.90;99.90;;;;;;5098610;28;20467;-87
2021/12/11 06:25:04;;;;;;;54.42;37.63;;;-2.00;99.90;;;;;;5109977;28;20399;-87
2021/12/11 06:27:31;;;;;;;65.60;43.47;;;-2.00;99.90;;;;;;5108271;28;20048;-85
2021/12/11 06:29:58;;;;;;;66.68;46.20;;;-2.00;99.90;;;;;;5095222;28;20091;-86
2021/12/11 06:32:25;;;;;;;71.30;46.30;;;-2.10;99.90;;;;;;5095358;28;20042;-86
2021/12/11 06:34:54;;;;;;;63.38;45.70;;;-2.10;99.90;;;;;;5112727;28;20079;-86
2021/12/11 06:37:21;;;;;;;61.33;43.85;;;-2.10;99.90;;;;;;5090575;28;20048;-85
2021/12/11 06:39:49;;;;;;;66.07;45.28;;;-2.10;99.90;;;;;;5093950;28;20544;-86
2021/12/11 06:42:18;;;;;;;66.35;44.83;;;-2.00;99.90;;;;;;5094139;28;20048;-85
2021/12/11 06:44:43;;;;;;;59.53;42.42;;;-2.10;99.90;;;;;;5114450;28;20047;-86
2021/12/11 06:47:10;;;;;;;67.65;44.45;;;-2.10;99.90;;;;;;5104248;28;20044;-86
2021/12/11 06:49:38;;;;;;;60.40;42.78;;;-2.10;99.90;;;;;;5093725;28;20048;-85
2021/12/11 06:52:11;;;;;;;55.03;39.10;;;-2.10;99.90;;;;;;5102964;28;20042;-86
2021/12/11 06:54:37;;;;;;;57.53;40.92;;;-2.10;99.90;;;;;;5095042;28;20503;-86
2021/12/11 06:57:03;;;;;;;59.90;41.25;;;-2.10;99.90;;;;;;5094330;28;20435;-86
2021/12/11 06:59:29;;;;;;;53.72;40.50;;;-2.10;99.90;;;;;;5094205;28;20465;-85
2021/12/11 07:01:55;;;;;;;65.05;45.72;;;-2.20;99.90;;;;;;5099615;28;20046;-86
2021/12/11 07:04:22;;;;;;;65.72;45.47;;;-2.20;99.90;;;;;;5101444;28;20046;-86
2021/12/11 07:06:51;;;;;;;67.97;47.85;;;-2.20;99.90;;;;;;5093478;28;20039;-85
2021/12/11 07:09:17;;;;;;;65.32;46.45;;;-2.10;99.90;;;;;;5093745;28;20047;-86
2021/12/11 07:11:45;;;;;;;66.18;45.40;;;-2.10;99.90;;;;;;5092879;28;20059;-86
2021/12/11 07:14:13;;;;;;;59.10;41.33;;;-2.10;99.90;;;;;;5096257;28;20480;-86
2021/12/11 07:16:39;;;;;;;60.30;42.42;;;-2.10;99.90;;;;;;5093424;28;20094;-86
2021/12/11 07:19:06;;;;;;;55.58;40.92;;;-2.10;99.90;;;;;;5093737;28;20047;-86
2021/12/11 07:21:32;;;;;;;55.35;39.42;;;-2.10;99.90;;;;;;5093689;28;20067;-86
2021/12/11 07:23:59;;;;;;;53.38;38.67;;;-2.10;99.90;;;;;;5078400;28;20054;-85
2021/12/11 07:26:31;;;;;;;51.67;39.00;;;-2.20;99.90;;;;;;5094535;28;20075;-86
2021/12/11 07:29:02;;;;;;;45.97;35.63;;;-2.10;99.90;;;;;;5112322;28;20055;-86
2021/12/11 07:31:28;;;;;;;49.58;37.85;;;-2.10;99.90;;;;;;5113958;28;20051;-86
2021/12/11 07:33:55;;;;;;;52.20;36.38;;;-2.20;99.90;;;;;;5106058;28;20052;-85
2021/12/11 07:36:22;;;;;;;48.17;36.65;;;-2.20;99.90;;;;;;5086427;28;20053;-85
2021/12/11 07:38:48;;;;;;;47.05;36.20;;;-2.20;99.90;;;;;;5091678;28;20101;-86
2021/12/11 07:41:16;;;;;;;44.00;35.55;;;-2.20;99.90;;;;;;5093373;28;20093;-86
2021/12/11 07:43:43;;;;;;;48.83;35.00;;;-2.10;99.90;;;;;;5092444;28;20477;-85
2021/12/11 07:46:13;;;;;;;42.53;33.95;;;-2.10;99.90;;;;;;5092942;28;20510;-85
2021/12/11 07:48:40;;;;;;;50.33;35.53;;;-2.10;99.90;;;;;;5092342;28;20036;-80
2021/12/11 07:51:07;;;;;;;45.13;35.53;;;-2.10;99.90;;;;;;5092136;28;20056;-85
2021/12/11 07:53:33;;;;;;;47.38;34.95;;;-2.10;99.90;;;;;;5093142;28;20044;-85
2021/12/11 07:55:59;;;;;;;40.60;33.28;;;-2.10;99.90;;;;;;5092191;28;20881;-82
2021/12/11 07:58:26;;;;;;;43.78;34.03;;;-2.10;99.90;;;;;;5092233;28;20400;-85
2021/12/11 08:00:52;;;;;;;41.22;32.90;;;-2.00;99.90;;;;;;5092219;28;20516;-85
2021/12/11 08:03:19;;;;;;;42.80;33.10;;;-2.00;99.90;;;;;;5092639;28;20083;-85
2021/12/11 08:05:48;;;;;;;41.28;33.47;;;-2.00;99.90;;;;;;5092116;28;20044;-85
2021/12/11 08:08:15;;;;;;;43.97;34.50;;;-2.00;99.90;;;;;;5091626;28;20094;-85
2021/12/11 08:10:45;;;;;;;39.08;32.67;;;-1.90;99.90;;;;;;5092298;28;20048;-76
2021/12/11 08:13:12;;;;;;;39.78;31.63;;;-1.90;99.90;;;;;;5092670;28;20123;-86
2021/12/11 08:15:40;;;;;;;39.97;32.35;;;-1.90;99.90;;;;;;5092190;28;20515;-85
2021/12/11 08:18:08;;;;;;;40.15;31.55;;;-1.90;99.90;;;;;;5092551;28;20116;-86
2021/12/11 08:20:36;;;;;;;40.45;32.90;;;-1.80;99.90;;;;;;5092790;28;20048;-72
2021/12/11 08:23:03;;;;;;;45.08;34.78;;;-1.80;99.90;;;;;;5090508;28;20071;-86
2021/12/11 08:25:31;;;;;;;44.17;33.90;;;-1.80;99.90;;;;;;5092681;28;20122;-85
2021/12/11 08:27:58;;;;;;;44.92;34.58;;;-1.70;99.90;;;;;;5091555;28;20443;-85
2021/12/11 08:30:27;;;;;;;44.08;34.65;;;-1.70;99.90;;;;;;5092721;28;20524;-86
2021/12/11 08:32:53;;;;;;;46.33;34.80;;;-1.70;99.90;;;;;;5089583;28;20606;-85
2021/12/11 08:35:19;;;;;;;44.22;35.28;;;-1.60;99.90;;;;;;5092448;28;20400;-86
2021/12/11 08:37:49;;;;;;;46.22;36.28;;;-1.60;99.90;;;;;;5091318;28;20047;-76
2021/12/11 08:40:20;;;;;;;47.03;36.20;;;-1.60;99.90;;;;;;5092652;28;20048;-86
2021/12/11 08:42:47;;;;;;;46.97;36.35;;;-1.50;99.90;;;;;;5096238;28;20043;-85
2021/12/11 08:45:21;;;;;;;49.90;37.97;;;-1.50;99.90;;;;;;5092815;28;20489;-85
2021/12/11 08:47:49;;;;;;;53.03;39.35;;;-1.40;99.90;;;;;;5106831;28;20485;-85
2021/12/11 08:50:19;;;;;;;49.88;37.70;;;-1.40;99.90;;;;;;5112482;28;20079;-85
2021/12/11 08:52:49;;;;;;;52.85;39.80;;;-1.30;99.90;;;;;;5105210;28;20052;-76
2021/12/11 08:55:30;;;;;;;53.20;40.58;;;-1.30;99.90;;;;;;5112366;28;20040;-85
2021/12/11 08:57:57;;;;;;;50.40;38.08;;;-1.20;99.90;;;;;;5105620;28;20043;-84
2021/12/11 09:00:44;;;;;;;54.55;41.58;;;-1.20;99.90;;;;;;5104291;28;20442;-83
2021/12/11 09:03:20;;;;;;;55.03;41.00;;;-1.10;99.90;;;;;;5088603;28;20090;-83
2021/12/11 09:05:52;;;;;;;54.65;41.40;;;-1.10;99.90;;;;;;5068615;28;20560;-76
2021/12/11 09:08:28;;;;;;;52.60;40.58;;;-1.10;99.90;;;;;;5088655;28;20073;-84
2021/12/11 09:11:26;;;;;;;51.65;40.85;;;-1.00;99.90;;;;;;5099304;28;20051;-84
2021/12/11 09:14:16;;;;;;;57.55;41.78;;;-0.90;99.90;;;;;;5090739;28;20059;-85
2021/12/11 09:16:47;;;;;;;54.17;41.75;;;-0.90;99.90;;;;;;5072009;28;20193;-85
2021/12/11 09:19:15;;;;;;;;;;;-0.80;99.90;;;;;;5089376;28;20048;-85
2021/12/11 09:21:46;;;;;;;55.22;41.95;;;-0.80;99.90;;;;;;5103640;28;19929;-80
2021/12/11 09:24:22;;;;;;;;;;;-0.70;99.90;;;;;;5072641;28;20048;-85
2021/12/11 09:27:12;;;;;;;54.75;42.80;;;-0.70;99.90;;;;;;5071601;28;19945;-77
2021/12/11 09:29:48;;;;;;;54.72;44.03;;;-0.60;99.90;;;;;;5071194;28;20105;-77
2021/12/11 09:32:22;;;;;;;60.03;45.63;;;-0.60;99.90;;;;;;5071693;28;20059;-84
2021/12/11 09:34:59;;;;;;;57.78;46.17;;;-0.50;99.90;;;;;;5108365;28;20110;-80
2021/12/11 09:37:27;;;;;;;58.38;46.95;;;-0.50;99.90;;;;;;5113567;28;20035;-79
2021/12/11 09:39:57;;;;;;;60.03;47.50;;;-0.40;99.90;;;;;;5100924;28;20119;-84
2021/12/11 09:42:22;;;;;;;59.10;47.75;;;-0.30;99.90;;;;;;5104178;28;20039;-85
2021/12/11 09:45:14;;;;;;;58.22;47.30;;;-0.30;99.90;;;;;;5111768;28;20134;-80
2021/12/11 09:47:50;;;;;;;60.95;49.53;;;-0.20;99.90;;;;;;5100538;28;20403;-86
2021/12/11 09:50:24;;;;;;;58.15;48.25;;;-0.10;99.90;;;;;;5097496;28;20100;-82
2021/12/11 09:52:51;;;;;;;56.78;47.55;;;-0.10;99.90;;;;;;5108560;28;20044;-77
2021/12/11 09:55:27;;;;;;;60.88;49.50;;;0.00;99.90;;;;;;5097529;28;20119;-83
2021/12/11 09:58:00;;;;;;;57.00;47.17;;;0.00;99.90;;;;;;5095356;28;20051;-77
2021/12/11 10:00:37;;;;;;;57.60;48.88;;;0.10;99.90;;;;;;5090628;28;20055;-83
2021/12/11 10:03:05;;;;;;;59.55;48.65;;;0.10;99.90;;;;;;5090583;28;20044;-77
2021/12/11 10:05:46;;;;;;;58.22;48.97;;;0.20;99.90;;;;;;5091637;28;20123;-82
2021/12/11 10:08:32;;;;;;;59.55;49.33;;;0.30;99.90;;;;;;5093643;28;20610;-79
2021/12/11 10:11:08;;;;;;;59.78;49.25;;;0.40;99.90;;;;;;5090867;28;20435;-78
2021/12/11 10:13:39;;;;;;;54.45;46.60;;;0.60;99.90;;;;;;5091718;28;20549;-77
2021/12/11 10:16:05;;;;;;;52.25;45.45;;;0.70;99.90;;;;;;5105709;28;20484;-80
2021/12/11 10:18:31;;;;;;;51.63;43.15;;;0.90;99.90;;;;;;5102116;28;20062;-80
2021/12/11 10:21:18;;;;;;;50.80;42.78;;;1.00;99.90;;;;;;5094753;28;20043;-82
2021/12/11 10:23:47;;;;;;;46.22;40.22;;;1.10;99.90;;;;;;5095564;28;20044;-83
2021/12/11 10:26:15;;;;;;;45.17;39.97;;;1.20;99.90;;;;;;5091064;28;20306;-81
2021/12/11 10:28:46;;;;;;;44.53;38.55;;;1.40;99.90;;;;;;5090440;28;20500;-84
2021/12/11 10:31:17;;;;;;;40.50;36.15;;;1.60;99.90;;;;;;5091236;28;20109;-85
2021/12/11 10:33:43;;;;;;;40.33;36.03;;;1.80;99.90;;;;;;5107428;28;20047;-84
2021/12/11 10:36:13;;;;;;;39.67;35.35;;;2.00;99.90;;;;;;5111118;28;20067;-85
2021/12/11 10:38:39;;;;;;;40.97;34.33;;;2.10;99.90;;;;;;5110046;28;20065;-84
2021/12/11 10:41:10;;;;;;;36.90;33.10;;;2.20;99.90;;;;;;5103892;28;20039;-85
2021/12/11 10:43:46;;;;;;;37.65;33.28;;;2.20;99.90;;;;;;5091473;28;20044;-86
2021/12/11 10:46:14;;;;;;;37.65;32.97;;;2.30;99.90;;;;;;5092092;28;20093;-86
2021/12/11 10:48:42;;;;;;;37.28;32.78;;;2.40;99.90;;;;;;5092662;28;20044;-84
2021/12/11 10:51:17;;;;;;;35.03;31.40;;;2.50;99.90;;;;;;5109654;28;20055;-86
2021/12/11 10:53:46;;;;;;;36.42;31.92;;;2.60;99.90;;;;;;5104955;28;20511;-79
2021/12/11 10:56:16;;;;;;;36.70;32.83;;;2.50;99.90;;;;;;5110130;28;20048;-82
2021/12/11 10:58:46;;;;;;;36.97;32.33;;;2.60;99.90;;;;;;5082904;28;20461;-78
2021/12/11 11:01:27;;;;;;;37.92;32.25;;;2.50;99.90;;;;;;5110583;28;20111;-79
2021/12/11 11:04:03;;;;;;;37.40;32.65;;;2.50;99.90;;;;;;5088095;28;20055;-87
2021/12/11 11:06:29;;;;;;;38.63;32.35;;;2.50;99.90;;;;;;5092992;28;20111;-77
2021/12/11 11:08:56;;;;;;;37.58;31.77;;;2.50;99.90;;;;;;5090757;28;20123;-89
2021/12/11 11:11:26;;;;;;;36.88;32.45;;;2.50;99.90;;;;;;5110474;28;20055;-89
2021/12/11 11:13:53;;;;;;;40.50;34.65;;;2.40;99.90;;;;;;5110591;28;20048;-80
2021/12/11 11:16:20;;;;;;;40.65;34.72;;;2.40;99.90;;;;;;5108823;28;20254;-84
2021/12/11 11:18:47;;;;;;;42.63;35.15;;;2.40;99.90;;;;;;5102083;28;20035;-78
2021/12/11 11:21:31;;;;;;;39.60;34.78;;;2.40;99.90;;;;;;5074773;28;20079;-79
2021/12/11 11:23:56;;;;;;;42.08;35.95;;;2.40;99.90;;;;;;5070618;28;20120;-83
2021/12/11 11:26:28;;;;;;;40.80;36.35;;;2.50;99.90;;;;;;5091971;28;20127;-79
2021/12/11 11:28:57;;;;;;;41.25;35.85;;;2.40;99.90;;;;;;5105718;28;20051;-84
2021/12/11 11:31:27;;;;;;;44.42;38.00;;;2.40;99.90;;;;;;5089125;28;20151;-84
2021/12/11 11:33:54;;;;;;;45.27;39.40;;;2.50;99.90;;;;;;5095873;28;20043;-85
2021/12/11 11:36:23;;;;;;;43.13;36.92;;;2.50;99.90;;;;;;5078464;28;21228;-86
2021/12/11 11:38:54;;;;;;;43.25;37.75;;;2.50;99.90;;;;;;5093234;28;20119;-81
2021/12/11 11:41:25;;;;;;;45.05;37.25;;;2.60;99.90;;;;;;5101439;28;20035;-87
2021/12/11 11:43:52;;;;;;;44.80;36.70;;;2.60;99.90;;;;;;5096138;28;20062;-81
2021/12/11 11:46:19;;;;;;;44.38;38.22;;;2.60;99.90;;;;;;5096894;28;20430;-85
2021/12/11 11:48:47;;;;;;;43.80;36.47;;;2.70;99.90;;;;;;5099444;28;20036;-78
2021/12/11 11:51:26;;;;;;;42.25;36.60;;;2.70;99.90;;;;;;5090399;28;20177;-79
2021/12/11 11:53:53;;;;;;;41.42;35.80;;;2.70;99.90;;;;;;5088028;28;20439;-86
2021/12/11 11:56:23;;;;;;;44.72;36.92;;;2.80;99.90;;;;;;5098255;28;20391;-80
2021/12/11 11:58:49;;;;;;;45.47;39.28;;;2.70;99.90;;;;;;5091247;28;20036;-83
2021/12/11 12:01:20;;;;;;;43.50;37.58;;;2.80;99.90;;;;;;5090504;28;20089;-86
2021/12/11 12:03:47;;;;;;;45.45;38.38;;;2.80;99.90;;;;;;5096732;28;20046;-78
2021/12/11 12:06:21;;;;;;;44.83;39.40;;;2.80;99.90;;;;;;5109072;28;20056;-84
2021/12/11 12:08:48;;;;;;;47.30;38.92;;;2.80;99.90;;;;;;5097339;28;20044;-79
2021/12/11 12:11:15;;;;;;;46.72;38.72;;;2.90;99.90;;;;;;5094830;28;20043;-86
2021/12/11 12:13:40;;;;;;;45.88;37.83;;;2.90;99.90;;;;;;5102108;28;20107;-87
2021/12/11 12:16:10;;;;;;;46.25;37.72;;;2.90;99.90;;;;;;5097170;28;20131;-77
2021/12/11 12:18:38;;;;;;;45.08;37.55;;;3.00;99.90;;;;;;5099660;28;20042;-85
2021/12/11 12:21:05;;;;;;;45.45;38.03;;;3.00;99.90;;;;;;5101555;28;20610;-87
2021/12/11 12:23:33;;;;;;;47.78;39.33;;;3.00;99.90;;;;;;5090325;28;20040;-81
2021/12/11 12:26:03;;;;;;;49.00;40.17;;;3.10;99.90;;;;;;5093118;28;20510;-86
2021/12/11 12:28:31;;;;;;;47.73;38.80;;;3.10;99.90;;;;;;5093072;28;20158;-85
2021/12/11 12:31:02;;;;;;;49.30;39.67;;;3.20;99.90;;;;;;5107330;28;20761;-80
2021/12/11 12:33:29;;;;;;;45.90;39.08;;;3.20;99.90;;;;;;5091586;28;20036;-87
2021/12/11 12:35:55;;;;;;;46.60;39.25;;;3.20;99.90;;;;;;5090534;28;20044;-86
2021/12/11 12:38:24;;;;;;;47.92;38.60;;;3.30;99.90;;;;;;5090127;28;20119;-82
2021/12/11 12:41:00;;;;;;;45.33;37.85;;;3.30;99.90;;;;;;5089843;28;20048;-88
2021/12/11 12:43:53;;;;;;;46.85;38.80;;;3.30;99.90;;;;;;5093855;28;20093;-80
2021/12/11 12:46:26;;;;;;;47.05;38.97;;;3.30;99.90;;;;;;5096926;28;20047;-88
2021/12/11 12:48:53;;;;;;;45.60;38.28;;;3.30;99.90;;;;;;5108238;28;20071;-86
2021/12/11 12:51:19;;;;;;;46.17;38.88;;;3.20;99.90;;;;;;5110460;28;20502;-78
2021/12/11 12:53:47;;;;;;;47.42;38.70;;;3.20;99.90;;;;;;5096837;28;20047;-82
2021/12/11 12:56:26;;;;;;;44.88;38.35;;;3.20;99.90;;;;;;5095257;28;20048;-80
2021/12/11 12:58:55;;;;;;;41.78;36.88;;;3.00;99.90;;;;;;5096168;28;20408;-85
2021/12/11 13:01:32;;;;;;;41.70;35.67;;;2.90;99.90;;;;;;5112417;28;20047;-85